Time;durP1;ratioP1;P1;durP2;ratioP2;P2;SDS_P1;SDS_P2;PMS_P1;PMS_P2;Temp;Humidity;BMP_temperature;BMP_pressure;BME280_temperature;BME280_humidity;BME280_pressure;Samples;Min_cycle;Max_cycle;Signal;HPM_P1;HPM_P2
2022/07/28 00:02:17;;;;;;;0.08;0.05;;;;;;;12.36;100.00;102026.34;10507960;28;20141;-76
2022/07/28 00:07:19;;;;;;;0.10;0.00;;;;;;;12.28;100.00;102021.72;10498210;28;20343;-77
2022/07/28 00:12:21;;;;;;;0.13;0.03;;;;;;;12.23;100.00;102029.28;10506675;28;20040;-76
2022/07/28 00:17:22;;;;;;;0.50;0.20;;;;;;;12.20;100.00;102031.75;10502680;28;20057;-76
2022/07/28 00:22:24;;;;;;;0.10;0.10;;;;;;;12.31;100.00;102026.97;10511529;28;20055;-77
2022/07/28 00:27:25;;;;;;;0.10;0.10;;;;;;;12.20;100.00;102018.84;10499539;28;20041;-77
2022/07/28 00:32:27;;;;;;;0.55;0.55;;;;;;;12.21;100.00;102030.94;10498039;28;20044;-76
2022/07/28 00:37:29;;;;;;;0.43;0.30;;;;;;;12.41;100.00;102015.28;10510097;28;20044;-77
2022/07/28 00:42:31;;;;;;;8.60;0.10;;;;;;;12.49;100.00;102016.44;10510277;28;20044;-76
2022/07/28 00:47:33;;;;;;;0.25;0.05;;;;;;;12.44;100.00;102015.41;10526814;28;20044;-76
2022/07/28 00:52:35;;;;;;;0.00;0.00;;;;;;;12.31;100.00;102012.38;10511356;28;20056;-76
2022/07/28 00:57:36;;;;;;;0.10;0.10;;;;;;;12.29;100.00;102011.44;10485714;28;20538;-77
2022/07/28 01:02:38;;;;;;;0.10;0.10;;;;;;;12.19;100.00;102006.72;10486228;28;20060;-77
2022/07/28 01:07:54;;;;;;;0.80;0.38;;;;;;;12.20;100.00;102000.75;10510305;28;20067;-77
2022/07/28 01:13:12;;;;;;;0.10;0.10;;;;;;;12.14;100.00;102009.16;10503616;28;20048;-76
2022/07/28 01:18:21;;;;;;;0.00;0.00;;;;;;;12.25;100.00;102011.25;10497027;28;20086;-77
2022/07/28 01:23:32;;;;;;;0.32;0.17;;;;;;;11.97;100.00;102011.09;10488674;28;20063;-77
2022/07/28 01:29:17;;;;;;;0.00;0.00;;;;;;;12.05;100.00;102009.69;10489982;28;20048;-77
2022/07/28 01:34:33;;;;;;;0.00;0.00;;;;;;;11.91;100.00;102011.72;10493445;28;20527;-76
2022/07/28 01:39:38;;;;;;;0.00;0.00;;;;;;;11.86;100.00;102010.66;10482556;28;20110;-76
2022/07/28 01:44:43;;;;;;;0.00;0.00;;;;;;;11.62;100.00;102005.44;10516028;28;20055;-76
2022/07/28 01:49:49;;;;;;;0.00;0.00;;;;;;;11.63;100.00;102014.94;10504045;28;20147;-76
2022/07/28 01:54:52;;;;;;;0.00;0.00;;;;;;;11.43;100.00;102004.69;10503388;28;20462;-77
2022/07/28 01:59:56;;;;;;;0.15;0.00;;;;;;;11.09;100.00;102012.78;10489801;28;20319;-77
2022/07/28 02:04:59;;;;;;;0.00;0.00;;;;;;;11.04;100.00;102012.59;10487973;28;20574;-76
2022/07/28 02:10:02;;;;;;;0.13;0.10;;;;;;;10.81;100.00;102015.88;10501983;28;20047;-77
2022/07/28 02:15:08;;;;;;;0.20;0.20;;;;;;;10.72;100.00;102014.66;10491629;28;20051;-77
2022/07/28 02:20:12;;;;;;;0.32;0.13;;;;;;;10.78;100.00;102009.78;10521790;28;20040;-76
2022/07/28 02:25:14;;;;;;;0.10;0.08;;;;;;;10.92;100.00;101999.16;10486447;28;20056;-77
2022/07/28 02:30:18;;;;;;;0.00;0.00;;;;;;;10.82;100.00;101997.88;10502509;28;20546;-76
2022/07/28 02:35:29;;;;;;;0.10;0.10;;;;;;;10.90;100.00;101987.91;10504931;28;20052;-77
2022/07/28 02:40:35;;;;;;;0.15;0.15;;;;;;;10.89;100.00;101986.16;10512456;28;20036;-76
2022/07/28 02:45:40;;;;;;;0.05;0.05;;;;;;;10.68;100.00;101986.13;10509826;28;20063;-76
2022/07/28 02:50:44;;;;;;;0.35;0.35;;;;;;;10.76;100.00;101980.47;10495120;28;20397;-76
2022/07/28 02:55:48;;;;;;;0.32;0.22;;;;;;;10.60;100.00;101990.94;10516256;28;20040;-76
2022/07/28 03:00:51;;;;;;;0.85;0.28;;;;;;;10.41;100.00;102000.44;10500728;28;20055;-77
2022/07/28 03:05:53;;;;;;;0.10;0.10;;;;;;;10.28;100.00;102000.69;10492068;28;20063;-76
2022/07/28 03:11:12;;;;;;;0.10;0.10;;;;;;;10.03;100.00;101994.41;10509233;28;20044;-76
2022/07/28 03:16:13;;;;;;;0.20;0.20;;;;;;;10.02;100.00;101997.78;10507476;28;20057;-76
2022/07/28 03:21:15;;;;;;;0.30;0.30;;;;;;;10.21;100.00;101999.50;10475485;28;20487;-76
2022/07/28 03:26:40;;;;;;;0.20;0.10;;;;;;;10.39;100.00;101994.31;10497215;28;20513;-76
2022/07/28 03:31:47;;;;;;;0.00;0.00;;;;;;;10.41;100.00;101997.88;10491360;28;20450;-76
2022/07/28 03:36:54;;;;;;;0.47;0.17;;;;;;;10.11;100.00;101998.22;10508205;28;20052;-76
2022/07/28 03:41:58;;;;;;;0.10;0.10;;;;;;;10.33;100.00;102006.91;10529737;28;20086;-77
2022/07/28 03:47:00;;;;;;;0.08;0.08;;;;;;;10.26;100.00;102010.03;10500114;28;20557;-76
2022/07/28 03:52:01;;;;;;;0.15;0.10;;;;;;;10.39;100.00;102017.50;10509634;28;20052;-76
2022/07/28 03:57:03;;;;;;;0.20;0.13;;;;;;;9.98;100.00;102024.22;10499435;28;20045;-76
2022/07/28 04:02:05;;;;;;;0.20;0.10;;;;;;;9.92;100.00;102026.53;10489047;28;20414;-76
2022/07/28 04:07:07;;;;;;;0.22;0.13;;;;;;;9.96;100.00;102028.41;10519544;28;20146;-76
2022/07/28 04:12:08;;;;;;;0.10;0.10;;;;;;;9.84;100.00;102029.63;10519215;28;20037;-76
2022/07/28 04:17:10;;;;;;;0.57;0.25;;;;;;;10.00;100.00;102031.19;10504487;28;20102;-77
2022/07/28 04:22:11;;;;;;;0.35;0.20;;;;;;;10.25;100.00;102027.19;10505757;28;20079;-76
2022/07/28 04:27:14;;;;;;;0.00;0.00;;;;;;;10.37;100.00;102026.88;10524850;28;20514;-76
2022/07/28 04:32:16;;;;;;;0.13;0.10;;;;;;;10.36;100.00;102034.50;10506883;28;20514;-77
2022/07/28 04:37:18;;;;;;;0.00;0.00;;;;;;;10.51;100.00;102030.06;10504942;28;20044;-76
2022/07/28 04:42:19;;;;;;;0.57;0.20;;;;;;;10.55;100.00;102026.81;10505364;28;20056;-77
2022/07/28 04:47:22;;;;;;;0.10;0.05;;;;;;;10.64;100.00;102028.91;10516074;28;20487;-76
2022/07/28 04:52:25;;;;;;;0.20;0.20;;;;;;;10.76;100.00;102024.28;10505319;28;20056;-76
2022/07/28 04:57:28;;;;;;;0.00;0.00;;;;;;;10.73;100.00;102021.59;10523073;28;20044;-76
2022/07/28 05:02:30;;;;;;;0.22;0.10;;;;;;;10.81;100.00;102019.31;10479811;28;20487;-76
2022/07/28 05:07:32;;;;;;;0.00;0.00;;;;;;;10.77;100.00;102023.47;10478734;28;20048;-77
2022/07/28 05:12:34;;;;;;;0.35;0.30;;;;;;;10.98;100.00;102014.91;10512252;28;20116;-76
2022/07/28 05:17:35;;;;;;;0.10;0.10;;;;;;;11.37;100.00;102001.00;10522821;28;20056;-77
2022/07/28 05:22:45;;;;;;;0.20;0.20;;;;;;;11.55;100.00;101999.13;10490083;28;20051;-76
2022/07/28 05:27:48;;;;;;;0.30;0.20;;;;;;;11.74;100.00;102000.75;10495873;28;20040;-76
2022/07/28 05:32:49;;;;;;;0.73;0.52;;;;;;;11.95;100.00;102002.38;10524585;28;20047;-76
2022/07/28 05:37:51;;;;;;;3.95;2.08;;;;;;;12.20;100.00;102005.91;10474129;28;20550;-77
2022/07/28 05:42:53;;;;;;;0.25;0.20;;;;;;;12.31;100.00;101996.88;10501697;28;20051;-76
2022/07/28 05:47:54;;;;;;;1.38;0.75;;;;;;;12.55;100.00;101995.97;10515659;28;20054;-77
2022/07/28 05:52:56;;;;;;;0.85;0.80;;;;;;;13.04;100.00;101991.59;10512747;28;20052;-76
2022/07/28 05:57:59;;;;;;;1.00;0.13;;;;;;;13.04;100.00;101998.50;10480524;28;20052;-77
2022/07/28 06:03:01;;;;;;;0.28;0.28;;;;;;;13.18;100.00;102005.84;10500196;28;20043;-76
2022/07/28 06:08:02;;;;;;;0.52;0.50;;;;;;;13.52;100.00;102000.06;10519503;28;20047;-76
2022/07/28 06:13:05;;;;;;;1.17;0.80;;;;;;;13.62;100.00;101995.22;10522314;28;20077;-77
2022/07/28 06:18:07;;;;;;;1.13;0.30;;;;;;;13.78;100.00;101988.78;10484769;28;20044;-77
2022/07/28 06:23:09;;;;;;;0.03;0.03;;;;;;;13.86;100.00;101996.78;10516950;28;20056;-77
2022/07/28 06:28:10;;;;;;;0.55;0.20;;;;;;;14.13;100.00;101990.66;10499155;28;20049;-77
2022/07/28 06:33:13;;;;;;;0.10;0.10;;;;;;;14.47;100.00;101999.38;10499960;28;20113;-77
2022/07/28 06:38:19;;;;;;;0.22;0.22;;;;;;;14.47;100.00;101996.78;10478678;28;20051;-76
2022/07/28 06:43:21;;;;;;;0.10;0.10;;;;;;;14.74;100.00;101995.78;10454333;28;20143;-76
2022/07/28 06:48:22;;;;;;;0.35;0.30;;;;;;;14.74;100.00;101978.50;10499598;28;20040;-76
2022/07/28 06:53:30;;;;;;;0.10;0.10;;;;;;;15.19;100.00;101979.63;10496743;28;20047;-76
2022/07/28 06:58:35;;;;;;;0.00;0.00;;;;;;;15.35;100.00;101980.00;10504416;28;20055;-76
2022/07/28 07:03:36;;;;;;;0.00;0.00;;;;;;;15.45;100.00;101974.16;10493037;28;20048;-76
2022/07/28 07:08:38;;;;;;;0.90;0.38;;;;;;;15.49;100.00;101977.69;10520623;28;20483;-76
2022/07/28 07:13:40;;;;;;;0.00;0.00;;;;;;;15.54;100.00;101974.38;10505554;28;20118;-77
2022/07/28 07:18:42;;;;;;;0.00;0.00;;;;;;;15.55;100.00;101968.31;10483580;28;20039;-77
2022/07/28 07:23:44;;;;;;;0.35;0.28;;;;;;;16.24;100.00;101965.44;10466180;28;20432;-77
2022/07/28 07:28:46;;;;;;;0.55;0.20;;;;;;;17.24;96.64;101953.31;10478281;28;20047;-77
2022/07/28 07:33:48;;;;;;;0.00;0.00;;;;;;;17.36;86.40;101960.44;10488125;28;20048;-78
2022/07/28 07:38:50;;;;;;;0.10;0.10;;;;;;;16.84;83.58;101963.03;10490241;28;20037;-79
2022/07/28 07:43:51;;;;;;;0.15;0.08;;;;;;;17.08;82.83;101953.94;10489434;28;20063;-78
2022/07/28 07:48:54;;;;;;;0.20;0.00;;;;;;;18.06;86.39;101950.94;10478125;28;20051;-76
2022/07/28 07:53:55;;;;;;;0.00;0.00;;;;;;;17.88;79.28;101941.13;10475736;28;20507;-78
2022/07/28 07:59:05;;;;;;;0.10;0.10;;;;;;;17.57;76.73;101940.75;10481319;28;20041;-78
2022/07/28 08:04:06;;;;;;;0.00;0.00;;;;;;;18.29;77.23;101930.31;10486710;28;20048;-79
2022/07/28 08:09:08;;;;;;;0.00;0.00;;;;;;;18.59;79.55;101925.41;10489124;28;20047;-79
2022/07/28 08:14:41;;;;;;;0.08;0.08;;;;;;;18.64;77.41;101929.81;10500383;28;20102;-77
2022/07/28 08:19:48;;;;;;;0.00;0.00;;;;;;;18.83;77.28;101928.22;10490914;28;20109;-77
2022/07/28 08:24:50;;;;;;;0.00;0.00;;;;;;;18.94;72.21;101923.13;10495624;28;20492;-79
2022/07/28 08:29:52;;;;;;;0.10;0.03;;;;;;;18.66;70.80;101933.28;10513591;28;20052;-79
2022/07/28 08:34:53;;;;;;;0.25;0.25;;;;;;;18.63;66.49;101932.38;10489354;28;20057;-78
2022/07/28 08:40:15;;;;;;;0.20;0.15;;;;;;;18.87;65.11;101921.28;10495019;28;20136;-78
2022/07/28 08:45:19;;;;;;;0.10;0.10;;;;;;;19.38;64.03;101907.69;10491120;28;20040;-78
2022/07/28 08:50:23;;;;;;;0.00;0.00;;;;;;;20.09;68.79;101903.66;10491891;28;20055;-80
2022/07/28 08:55:27;;;;;;;0.40;0.15;;;;;;;20.57;63.95;101903.69;10482486;28;20052;-78
2022/07/28 09:00:32;;;;;;;0.00;0.00;;;;;;;20.36;62.59;101906.31;10483775;28;20045;-77
2022/07/28 09:05:36;;;;;;;0.30;0.13;;;;;;;20.13;62.90;101915.00;10476581;28;20046;-78
2022/07/28 09:10:37;;;;;;;0.10;0.05;;;;;;;20.74;60.04;101908.06;10483221;28;20073;-78
2022/07/28 09:15:47;;;;;;;0.00;0.00;;;;;;;20.47;54.65;101904.56;10465391;28;20051;-78
2022/07/28 09:20:49;;;;;;;0.30;0.30;;;;;;;20.42;59.86;101908.94;10486376;28;20060;-79
2022/07/28 09:26:05;;;;;;;0.00;0.00;;;;;;;21.22;57.39;101900.16;10486238;28;20055;-78
2022/07/28 09:31:12;;;;;;;0.00;0.00;;;;;;;21.50;58.49;101906.16;10490417;28;20064;-78
2022/07/28 09:36:15;;;;;;;0.20;0.00;;;;;;;21.26;56.12;101895.78;10505288;28;20055;-78
2022/07/28 09:41:22;;;;;;;0.30;0.15;;;;;;;22.46;57.00;101889.94;10488670;28;20063;-78
2022/07/28 09:46:25;;;;;;;0.00;0.00;;;;;;;21.58;51.14;101902.69;10486422;28;20052;-78
2022/07/28 09:51:32;;;;;;;0.25;0.22;;;;;;;21.31;54.20;101889.63;10500018;28;20387;-79
2022/07/28 09:56:34;;;;;;;0.00;0.00;;;;;;;21.20;48.95;101892.28;10490374;28;20041;-78
2022/07/28 10:01:55;;;;;;;0.10;0.10;;;;;;;21.20;52.49;101879.19;10491977;28;20807;-79
2022/07/28 10:07:28;;;;;;;0.00;0.00;;;;;;;21.63;56.49;101882.56;10487106;28;20045;-79
2022/07/28 10:12:32;;;;;;;0.10;0.05;;;;;;;22.10;58.72;101875.31;10476934;28;20067;-78
2022/07/28 10:17:33;;;;;;;0.00;0.00;;;;;;;21.15;50.53;101875.72;10488930;28;20063;-78
2022/07/28 10:22:37;;;;;;;0.95;0.15;;;;;;;22.00;54.00;101858.75;10487880;28;20048;-78
2022/07/28 10:27:46;;;;;;;0.00;0.00;;;;;;;22.00;54.77;101853.50;10503507;28;20097;-78
2022/07/28 10:32:49;;;;;;;0.05;0.05;;;;;;;21.81;53.79;101847.50;10492029;28;20483;-78
2022/07/28 10:38:06;;;;;;;0.47;0.17;;;;;;;22.04;53.33;101834.22;10489008;28;20044;-78
2022/07/28 10:43:07;;;;;;;0.13;0.10;;;;;;;22.22;53.68;101842.84;10470084;28;20110;-82
2022/07/28 10:48:09;;;;;;;0.00;0.00;;;;;;;22.49;52.83;101841.75;10501631;28;20076;-79
2022/07/28 10:53:26;;;;;;;0.63;0.30;;;;;;;22.10;46.73;101839.44;10515645;28;20110;-78
2022/07/28 10:58:44;;;;;;;0.08;0.08;;;;;;;22.77;50.48;101820.50;10519123;28;20035;-79
2022/07/28 11:03:47;;;;;;;1.17;0.63;;;;;;;22.92;52.64;101819.44;10481984;28;20502;-78
2022/07/28 11:08:51;;;;;;;0.03;0.03;;;;;;;22.16;45.97;101818.38;10472884;28;20414;-78
2022/07/28 11:14:13;;;;;;;0.00;0.00;;;;;;;22.59;53.90;101817.16;10503585;28;20048;-79
2022/07/28 11:19:17;;;;;;;0.03;0.03;;;;;;;22.85;48.69;101813.41;10485183;28;20048;-77
2022/07/28 11:24:57;;;;;;;2.25;0.00;;;;;;;22.90;47.91;101805.47;10488154;28;20044;-81
2022/07/28 11:29:59;;;;;;;0.00;0.00;;;;;;;23.38;48.73;101787.38;10491738;28;20464;-79
2022/07/28 11:35:08;;;;;;;0.00;0.00;;;;;;;22.63;49.24;101803.16;10491431;28;20523;-78
2022/07/28 11:40:28;;;;;;;;;;;;;;;23.17;48.37;101793.78;10491411;28;20040;-79
2022/07/28 11:45:30;;;;;;;;;;;;;;;23.10;48.33;101782.47;10491394;28;19924;-79
2022/07/28 11:50:41;;;;;;;0.10;0.10;;;;;;;22.50;50.60;101770.88;10513654;28;19965;-77
2022/07/28 11:55:43;;;;;;;0.20;0.20;;;;;;;22.89;48.09;101774.84;10490778;28;20491;-78
2022/07/28 12:01:15;;;;;;;;;;;;;;;23.25;51.81;101764.78;10490549;28;20495;-78
2022/07/28 12:06:21;;;;;;;0.00;0.00;;;;;;;22.80;48.93;101774.06;10479294;28;20007;-78
2022/07/28 12:11:35;;;;;;;0.13;0.10;;;;;;;23.09;48.60;101767.56;10497493;28;20444;-78
2022/07/28 12:16:39;;;;;;;0.00;0.00;;;;;;;23.16;47.49;101759.59;10497464;28;20114;-80
2022/07/28 12:21:46;;;;;;;0.00;0.00;;;;;;;22.85;47.68;101755.63;10476296;28;20041;-78
2022/07/28 12:26:49;;;;;;;0.00;0.00;;;;;;;23.32;44.41;101755.91;10492047;28;20102;-79
2022/07/28 12:32:00;;;;;;;0.00;0.00;;;;;;;23.25;45.05;101751.63;10486152;28;20303;-78
2022/07/28 12:37:08;;;;;;;0.10;0.10;;;;;;;23.36;50.02;101757.59;10468978;28;20118;-78
2022/07/28 12:42:11;;;;;;;0.00;0.00;;;;;;;23.63;44.02;101744.97;10490025;28;20045;-78
2022/07/28 12:47:16;;;;;;;0.15;0.15;;;;;;;23.89;43.83;101751.56;10490995;28;20071;-79
2022/07/28 12:52:20;;;;;;;0.30;0.17;;;;;;;23.82;53.49;101739.38;10500637;28;20069;-78
2022/07/28 12:57:46;;;;;;;0.00;0.00;;;;;;;24.15;44.77;101740.59;10499153;28;20045;-78
2022/07/28 13:02:55;;;;;;;0.00;0.00;;;;;;;23.52;45.72;101739.88;10509310;28;20048;-80
2022/07/28 13:07:59;;;;;;;0.28;0.00;;;;;;;23.43;41.07;101743.47;10497790;28;20051;-80
2022/07/28 13:13:05;;;;;;;0.03;0.00;;;;;;;23.67;44.53;101724.72;10507017;28;20058;-79
2022/07/28 13:18:07;;;;;;;0.00;0.00;;;;;;;23.48;45.87;101724.16;10457974;28;20054;-78
2022/07/28 13:23:09;;;;;;;0.10;0.10;;;;;;;23.32;48.76;101723.47;10503956;28;20060;-78
2022/07/28 13:28:24;;;;;;;0.00;0.00;;;;;;;23.68;48.01;101713.31;10517253;28;20044;-78
2022/07/28 13:33:25;;;;;;;0.10;0.10;;;;;;;23.66;47.28;101708.06;10510552;28;20036;-80
2022/07/28 13:38:28;;;;;;;0.00;0.00;;;;;;;23.12;48.38;101706.22;10531461;28;20431;-80
2022/07/28 13:43:30;;;;;;;0.10;0.10;;;;;;;22.94;50.74;101696.81;10496011;28;20041;-79
2022/07/28 13:48:39;;;;;;;0.10;0.10;;;;;;;22.97;50.31;101686.28;10505692;28;20557;-78
2022/07/28 13:54:00;;;;;;;0.00;0.00;;;;;;;22.80;46.86;101695.25;10490414;28;20165;-79
2022/07/28 13:59:02;;;;;;;0.10;0.10;;;;;;;22.64;49.16;101701.56;10486070;28;20098;-79
2022/07/28 14:04:08;;;;;;;0.10;0.10;;;;;;;22.94;43.35;101691.56;10493172;28;20123;-80
2022/07/28 14:09:17;;;;;;;0.17;0.00;;;;;;;23.48;45.25;101682.06;10492020;28;20084;-79
2022/07/28 14:14:23;;;;;;;0.00;0.00;;;;;;;23.05;41.62;101683.53;10471750;28;20062;-79
2022/07/28 14:19:25;;;;;;;0.03;0.00;;;;;;;23.43;45.34;101674.25;10487002;28;20045;-78
2022/07/28 14:24:43;;;;;;;0.10;0.00;;;;;;;23.34;47.51;101677.91;10489942;28;20085;-79
2022/07/28 14:29:46;;;;;;;0.40;0.10;;;;;;;23.30;46.33;101668.31;10490072;28;20040;-78
2022/07/28 14:34:47;;;;;;;0.00;0.00;;;;;;;23.01;50.79;101677.47;10488826;28;20051;-78
2022/07/28 14:39:49;;;;;;;0.00;0.00;;;;;;;22.67;47.07;101670.03;10491510;28;20500;-78
2022/07/28 14:44:51;;;;;;;0.00;0.00;;;;;;;22.93;51.01;101667.06;10491112;28;20047;-78
2022/07/28 14:49:53;;;;;;;0.00;0.00;;;;;;;22.82;46.05;101672.44;10479602;28;20063;-79
2022/07/28 14:54:59;;;;;;;0.10;0.10;;;;;;;22.81;44.99;101665.47;10480304;28;20032;-78
2022/07/28 15:00:00;;;;;;;1.02;0.40;;;;;;;23.23;46.79;101664.03;10479939;28;20041;-79
2022/07/28 15:05:03;;;;;;;0.00;0.00;;;;;;;23.38;44.30;101655.91;10486082;28;20070;-80
2022/07/28 15:10:05;;;;;;;0.20;0.00;;;;;;;23.07;48.53;101656.34;10480154;28;20052;-80
2022/07/28 15:15:07;;;;;;;0.00;0.00;;;;;;;22.57;47.11;101663.13;10497471;28;20044;-79
2022/07/28 15:20:10;;;;;;;0.00;0.00;;;;;;;22.99;49.06;101642.44;10483981;28;20488;-80
2022/07/28 15:25:12;;;;;;;0.45;0.43;;;;;;;23.17;53.85;101643.06;10489386;28;20052;-79
2022/07/28 15:30:13;;;;;;;0.05;0.00;;;;;;;22.65;43.74;101649.03;10503230;28;20044;-78
2022/07/28 15:35:17;;;;;;;0.00;0.00;;;;;;;22.89;50.04;101654.00;10511664;28;20491;-79
2022/07/28 15:40:18;;;;;;;2.05;0.10;;;;;;;23.13;48.59;101648.38;10498348;28;20036;-78
2022/07/28 15:45:20;;;;;;;0.00;0.00;;;;;;;23.37;49.05;101645.44;10498955;28;20484;-78
2022/07/28 15:50:23;;;;;;;0.10;0.00;;;;;;;23.58;46.56;101645.09;10490629;28;20376;-79
2022/07/28 15:55:25;;;;;;;0.00;0.00;;;;;;;23.72;47.14;101639.56;10501540;28;20398;-79
2022/07/28 16:00:27;;;;;;;0.00;0.00;;;;;;;23.04;51.59;101631.88;10492994;28;20048;-78
2022/07/28 16:05:29;;;;;;;0.00;0.00;;;;;;;22.70;46.86;101632.34;10497869;28;20053;-78
2022/07/28 16:10:32;;;;;;;0.05;0.03;;;;;;;22.79;50.30;101630.47;10497257;28;20044;-79
2022/07/28 16:15:33;;;;;;;0.10;0.00;;;;;;;22.62;48.52;101627.19;10494824;28;20044;-79
2022/07/28 16:20:36;;;;;;;0.08;0.00;;;;;;;22.55;51.41;101628.16;10493992;28;20045;-79
2022/07/28 16:25:38;;;;;;;2.10;0.52;;;;;;;22.35;51.78;101624.84;10497070;28;20052;-78
2022/07/28 16:30:46;;;;;;;1.02;0.32;;;;;;;22.31;50.01;101627.50;10496844;28;20119;-77
2022/07/28 16:35:48;;;;;;;0.00;0.00;;;;;;;22.12;49.45;101625.13;10495320;28;20119;-77
2022/07/28 16:40:52;;;;;;;0.20;0.08;;;;;;;22.19;50.91;101623.28;10487221;28;20040;-78
2022/07/28 16:45:54;;;;;;;0.10;0.10;;;;;;;22.15;52.68;101611.94;10496018;28;20051;-77
2022/07/28 16:50:56;;;;;;;0.00;0.00;;;;;;;22.18;51.14;101611.06;10522477;28;20044;-78
2022/07/28 16:55:57;;;;;;;0.00;0.00;;;;;;;22.22;53.00;101617.16;10476425;28;20484;-78
2022/07/28 17:00:59;;;;;;;0.00;0.00;;;;;;;22.08;51.35;101612.91;10483861;28;20044;-78
2022/07/28 17:06:02;;;;;;;0.17;0.17;;;;;;;22.10;51.65;101613.75;10467810;28;20056;-78
2022/07/28 17:11:04;;;;;;;0.00;0.00;;;;;;;22.03;50.70;101627.81;10487317;28;20056;-78
2022/07/28 17:16:05;;;;;;;0.00;0.00;;;;;;;21.95;53.90;101616.53;10487533;28;20053;-77
2022/07/28 17:21:07;;;;;;;0.05;0.05;;;;;;;21.96;53.66;101623.53;10486771;28;20044;-78
2022/07/28 17:26:11;;;;;;;0.00;0.00;;;;;;;21.90;54.41;101626.22;10486685;28;20476;-78
2022/07/28 17:31:33;;;;;;;0.30;0.20;;;;;;;21.91;54.42;101625.34;10488104;28;20039;-78
2022/07/28 17:36:35;;;;;;;0.17;0.17;;;;;;;21.87;51.74;101617.50;10491032;28;20428;-78
2022/07/28 17:41:38;;;;;;;0.00;0.00;;;;;;;21.87;55.03;101633.22;10488078;28;20155;-78
2022/07/28 17:46:40;;;;;;;0.05;0.05;;;;;;;21.85;54.88;101618.41;10505061;28;20085;-78
2022/07/28 17:51:43;;;;;;;0.10;0.00;;;;;;;21.89;60.24;101608.75;10516544;28;20439;-78
2022/07/28 17:56:46;;;;;;;0.00;0.00;;;;;;;21.56;60.21;101616.88;10490399;28;20680;-79
2022/07/28 18:01:48;;;;;;;0.00;0.00;;;;;;;21.39;61.28;101615.25;10445681;28;20051;-79
2022/07/28 18:06:49;;;;;;;0.30;0.10;;;;;;;21.50;61.86;101612.56;10499285;28;20051;-78
2022/07/28 18:11:51;;;;;;;0.00;0.00;;;;;;;21.56;61.74;101609.88;10491430;28;20044;-78
2022/07/28 18:16:59;;;;;;;0.00;0.00;;;;;;;21.37;62.60;101613.53;10493723;28;20044;-77
2022/07/28 18:22:00;;;;;;;0.20;0.00;;;;;;;21.12;62.99;101611.09;10493685;28;20044;-78
2022/07/28 18:27:02;;;;;;;0.28;0.13;;;;;;;21.11;66.45;101614.59;10487091;28;20044;-78
2022/07/28 18:32:06;;;;;;;0.00;0.00;;;;;;;21.16;63.92;101615.44;10469961;28;20415;-78
2022/07/28 18:37:11;;;;;;;0.00;0.00;;;;;;;20.89;65.23;101614.72;10487701;28;20094;-78
2022/07/28 18:42:14;;;;;;;0.00;0.00;;;;;;;20.95;60.46;101612.97;10492702;28;20048;-78
2022/07/28 18:47:16;;;;;;;0.00;0.00;;;;;;;20.83;63.37;101608.66;10487738;28;20044;-78
2022/07/28 18:52:17;;;;;;;0.00;0.00;;;;;;;20.71;64.77;101607.81;10507008;28;20040;-78
2022/07/28 18:57:19;;;;;;;0.15;0.00;;;;;;;20.63;64.09;101611.34;10483771;28;20066;-79
2022/07/28 19:02:21;;;;;;;0.10;0.00;;;;;;;20.43;67.29;101615.78;10509116;28;20060;-78
2022/07/28 19:07:27;;;;;;;0.03;0.03;;;;;;;20.21;67.65;101621.97;10498127;28;20044;-78
2022/07/28 19:12:30;;;;;;;0.30;0.30;;;;;;;20.12;67.97;101620.25;10520318;28;20044;-78
2022/07/28 19:17:32;;;;;;;0.55;0.10;;;;;;;19.91;70.55;101629.91;10511089;28;20052;-78
2022/07/28 19:22:34;;;;;;;0.00;0.00;;;;;;;19.72;74.57;101625.50;10488454;28;20404;-79
2022/07/28 19:27:36;;;;;;;0.00;0.00;;;;;;;19.49;77.71;101623.75;10486473;28;20052;-78
2022/07/28 19:32:40;;;;;;;0.52;0.17;;;;;;;19.34;74.80;101630.72;10488045;28;20041;-78
2022/07/28 19:37:42;;;;;;;0.00;0.00;;;;;;;19.27;77.45;101634.19;10485275;28;20514;-78
2022/07/28 19:42:47;;;;;;;0.00;0.00;;;;;;;19.17;75.43;101637.69;10480313;28;20048;-78
2022/07/28 19:47:48;;;;;;;0.20;0.20;;;;;;;19.01;76.13;101642.88;10455595;28;20044;-78
2022/07/28 19:52:50;;;;;;;0.38;0.25;;;;;;;18.93;77.91;101648.91;10490387;28;20055;-78
2022/07/28 19:57:54;;;;;;;0.40;0.30;;;;;;;18.83;79.23;101653.22;10483970;28;20123;-79
2022/07/28 20:02:55;;;;;;;0.20;0.05;;;;;;;18.55;81.57;101671.38;10482414;28;20052;-78
2022/07/28 20:07:57;;;;;;;0.00;0.00;;;;;;;18.38;80.02;101674.75;10488910;28;20127;-79
2022/07/28 20:12:59;;;;;;;0.15;0.00;;;;;;;18.46;78.27;101673.91;10487320;28;20034;-79
2022/07/28 20:18:00;;;;;;;0.60;0.32;;;;;;;18.39;79.92;101678.25;10485883;28;20045;-78
2022/07/28 20:23:02;;;;;;;1.75;0.35;;;;;;;18.21;80.64;101673.75;10498520;28;20143;-78
2022/07/28 20:28:04;;;;;;;0.00;0.00;;;;;;;18.20;80.59;101682.47;10497189;28;20063;-78
2022/07/28 20:33:07;;;;;;;0.00;0.00;;;;;;;18.20;80.58;101677.25;10491639;28;20045;-78
2022/07/28 20:38:08;;;;;;;0.00;0.00;;;;;;;18.01;85.97;101687.53;10495930;28;20047;-79
2022/07/28 20:43:10;;;;;;;0.00;0.00;;;;;;;17.83;85.17;101684.78;10497664;28;20037;-78
2022/07/28 20:48:12;;;;;;;0.10;0.10;;;;;;;17.84;84.54;101683.88;10506705;28;20122;-78
2022/07/28 20:53:15;;;;;;;0.05;0.05;;;;;;;17.90;82.41;101689.19;10521345;28;20051;-78
2022/07/28 20:58:17;;;;;;;0.00;0.00;;;;;;;17.69;85.40;101688.13;10494450;28;20131;-78
2022/07/28 21:03:20;;;;;;;0.20;0.10;;;;;;;17.58;87.38;101692.38;10482650;28;20056;-78
2022/07/28 21:08:21;;;;;;;0.00;0.00;;;;;;;17.58;86.81;101697.59;10484517;28;20048;-78
2022/07/28 21:13:23;;;;;;;0.20;0.05;;;;;;;17.53;87.83;101702.75;10519437;28;20214;-78
2022/07/28 21:18:25;;;;;;;0.00;0.00;;;;;;;17.58;86.08;101697.59;10497438;28;20079;-78
2022/07/28 21:23:27;;;;;;;0.00;0.00;;;;;;;17.83;81.53;101692.59;10489404;28;20503;-79
2022/07/28 21:33:50;;;;;;;0.00;0.00;;;;;;;17.78;82.90;101697.78;10515159;28;20048;-79
2022/07/28 21:38:51;;;;;;;0.00;0.00;;;;;;;17.89;81.19;101705.69;10495807;28;20098;-78
2022/07/28 21:43:55;;;;;;;0.38;0.08;;;;;;;17.94;80.39;101711.78;10513695;28;20036;-78
2022/07/28 21:49:04;;;;;;;1.95;0.40;;;;;;;17.94;80.25;101696.16;10517036;28;20287;-78
2022/07/28 21:54:06;;;;;;;0.10;0.10;;;;;;;17.98;80.09;101702.28;10494506;28;20041;-79
2022/07/28 21:59:08;;;;;;;0.05;0.05;;;;;;;17.98;78.92;101697.97;10468129;28;20041;-79
2022/07/28 22:04:11;;;;;;;0.10;0.10;;;;;;;17.85;82.91;101702.19;10491742;28;20051;-79
2022/07/28 22:09:14;;;;;;;0.10;0.10;;;;;;;17.84;83.79;101694.31;10494924;28;20040;-79
2022/07/28 22:14:18;;;;;;;0.08;0.08;;;;;;;17.75;82.61;101701.22;10490101;28;20036;-79
2022/07/28 22:19:20;;;;;;;0.28;0.10;;;;;;;17.68;83.02;101699.44;10484185;28;20048;-79
2022/07/28 22:24:24;;;;;;;0.00;0.00;;;;;;;17.67;83.55;101697.69;10474536;28;20044;-79
2022/07/28 22:29:26;;;;;;;0.15;0.10;;;;;;;17.53;84.18;101691.47;10490307;28;20098;-79
2022/07/28 22:34:32;;;;;;;0.05;0.05;;;;;;;17.36;85.63;101699.09;10494058;28;20052;-78
2022/07/28 22:39:34;;;;;;;0.38;0.20;;;;;;;17.40;85.59;101693.94;10493182;28;20049;-79
2022/07/28 22:44:36;;;;;;;0.13;0.10;;;;;;;17.36;86.85;101707.78;10491036;28;20396;-79
2022/07/28 22:49:37;;;;;;;0.13;0.13;;;;;;;17.32;87.34;101689.50;10489550;28;20044;-79
2022/07/28 22:54:39;;;;;;;0.00;0.00;;;;;;;17.27;87.88;101703.38;10492942;28;20502;-79
2022/07/28 22:59:41;;;;;;;0.00;0.00;;;;;;;17.25;88.02;101702.47;10489216;28;20040;-79
2022/07/28 23:05:13;;;;;;;0.00;0.00;;;;;;;17.16;90.78;101702.34;10483417;28;20037;-78
2022/07/28 23:10:15;;;;;;;0.15;0.10;;;;;;;17.28;87.84;101694.66;10487349;28;20106;-78
2022/07/28 23:15:19;;;;;;;0.43;0.43;;;;;;;17.20;88.60;101685.03;10487633;28;20052;-78
2022/07/28 23:20:20;;;;;;;0.00;0.00;;;;;;;17.13;88.41;101682.38;10493261;28;20044;-79